Rutherford, Indiana
Current Conditions -  °F | °C
As of 8:35 AM on Thursday 29 Jan 2015 (Local Time) from KDCY Reporting Station
Overcast Overcast  
Wind Chill: 43°   Ceiling: 3000
Heat Index: 49°   Visibility: 10mi
Dew Point: 36°   Wind: 18mph
Humidity: 60%   Direction: 260°W
Pressure: 29.87"   Gusts: 24mph
Location:  38.6074°N, 86.9234°W
Report Text: KDCY 291435Z AUTO 26016G21KT 10SM OVC030 10/02 A2987 RMK AO2 T00950021
Loading
Personal Weather Stations






























Interactive Weather Map New forecast layout! Learn more

10-Day Weather Forecast

Advertisements
Track Severe Weather on mobile